sensor_id;sensor_type;location;lat;lon;timestamp;P1;durP1;ratioP1;P2;durP2;ratioP2
4517;SDS011;2271;49.464;11.070;2022-11-12T00:01:16;15.00;;;5.90;;
4517;SDS011;2271;49.464;11.070;2022-11-12T00:03:42;8.17;;;5.47;;
4517;SDS011;2271;49.464;11.070;2022-11-12T00:06:08;7.93;;;5.23;;
4517;SDS011;2271;49.464;11.070;2022-11-12T00:08:33;7.93;;;5.93;;
4517;SDS011;2271;49.464;11.070;2022-11-12T00:10:59;7.43;;;4.80;;
4517;SDS011;2271;49.464;11.070;2022-11-12T00:13:25;7.97;;;5.90;;
4517;SDS011;2271;49.464;11.070;2022-11-12T00:15:50;5.57;;;5.00;;
4517;SDS011;2271;49.464;11.070;2022-11-12T00:18:16;6.43;;;5.10;;
4517;SDS011;2271;49.464;11.070;2022-11-12T00:20:42;5.97;;;5.27;;
4517;SDS011;2271;49.464;11.070;2022-11-12T00:23:08;8.73;;;4.93;;
4517;SDS011;2271;49.464;11.070;2022-11-12T00:25:34;6.30;;;4.77;;
4517;SDS011;2271;49.464;11.070;2022-11-12T00:28:04;5.37;;;4.50;;
4517;SDS011;2271;49.464;11.070;2022-11-12T00:30:36;6.97;;;4.97;;
4517;SDS011;2271;49.464;11.070;2022-11-12T00:33:03;6.00;;;4.63;;
4517;SDS011;2271;49.464;11.070;2022-11-12T00:35:32;6.43;;;5.03;;
4517;SDS011;2271;49.464;11.070;2022-11-12T00:37:58;5.63;;;5.03;;
4517;SDS011;2271;49.464;11.070;2022-11-12T00:40:25;7.40;;;4.73;;
4517;SDS011;2271;49.464;11.070;2022-11-12T00:42:51;5.57;;;4.43;;
4517;SDS011;2271;49.464;11.070;2022-11-12T00:45:20;5.50;;;4.33;;
4517;SDS011;2271;49.464;11.070;2022-11-12T00:47:46;4.23;;;3.63;;
4517;SDS011;2271;49.464;11.070;2022-11-12T00:50:11;4.83;;;4.07;;
4517;SDS011;2271;49.464;11.070;2022-11-12T00:52:38;5.00;;;4.47;;
4517;SDS011;2271;49.464;11.070;2022-11-12T00:55:04;5.33;;;3.97;;
4517;SDS011;2271;49.464;11.070;2022-11-12T00:57:30;6.87;;;4.33;;
4517;SDS011;2271;49.464;11.070;2022-11-12T00:59:55;4.67;;;4.00;;
4517;SDS011;2271;49.464;11.070;2022-11-12T01:02:21;5.43;;;4.17;;
4517;SDS011;2271;49.464;11.070;2022-11-12T01:04:46;6.47;;;4.40;;
4517;SDS011;2271;49.464;11.070;2022-11-12T01:07:12;5.87;;;4.50;;
4517;SDS011;2271;49.464;11.070;2022-11-12T01:09:39;5.63;;;3.93;;
4517;SDS011;2271;49.464;11.070;2022-11-12T01:12:05;5.47;;;4.73;;
4517;SDS011;2271;49.464;11.070;2022-11-12T01:14:31;4.77;;;4.00;;
4517;SDS011;2271;49.464;11.070;2022-11-12T01:16:57;4.40;;;3.67;;
4517;SDS011;2271;49.464;11.070;2022-11-12T01:19:22;5.07;;;4.57;;
4517;SDS011;2271;49.464;11.070;2022-11-12T01:21:48;5.30;;;4.40;;
4517;SDS011;2271;49.464;11.070;2022-11-12T01:24:13;6.77;;;4.27;;
4517;SDS011;2271;49.464;11.070;2022-11-12T01:26:39;5.50;;;4.00;;
4517;SDS011;2271;49.464;11.070;2022-11-12T01:29:05;6.30;;;4.03;;
4517;SDS011;2271;49.464;11.070;2022-11-12T01:31:32;6.30;;;5.00;;
4517;SDS011;2271;49.464;11.070;2022-11-12T01:34:00;6.13;;;4.10;;
4517;SDS011;2271;49.464;11.070;2022-11-12T01:36:32;4.70;;;4.23;;
4517;SDS011;2271;49.464;11.070;2022-11-12T01:39:06;5.03;;;4.27;;
4517;SDS011;2271;49.464;11.070;2022-11-12T01:41:33;7.90;;;4.77;;
4517;SDS011;2271;49.464;11.070;2022-11-12T01:44:18;10.57;;;4.80;;
4517;SDS011;2271;49.464;11.070;2022-11-12T01:50:34;6.30;;;4.57;;
4517;SDS011;2271;49.464;11.070;2022-11-12T01:52:38;7.40;;;4.70;;
4517;SDS011;2271;49.464;11.070;2022-11-12T01:55:14;6.93;;;4.90;;
4517;SDS011;2271;49.464;11.070;2022-11-12T01:57:45;4.80;;;4.27;;
4517;SDS011;2271;49.464;11.070;2022-11-12T02:00:17;6.63;;;4.63;;
4517;SDS011;2271;49.464;11.070;2022-11-12T02:02:44;7.57;;;4.77;;
4517;SDS011;2271;49.464;11.070;2022-11-12T02:05:16;4.77;;;4.03;;
4517;SDS011;2271;49.464;11.070;2022-11-12T02:07:42;5.57;;;3.77;;
4517;SDS011;2271;49.464;11.070;2022-11-12T02:10:11;4.77;;;3.77;;
4517;SDS011;2271;49.464;11.070;2022-11-12T02:12:38;5.97;;;3.87;;
4517;SDS011;2271;49.464;11.070;2022-11-12T02:15:22;4.67;;;4.17;;
4517;SDS011;2271;49.464;11.070;2022-11-12T02:17:50;4.77;;;4.03;;
4517;SDS011;2271;49.464;11.070;2022-11-12T02:20:16;5.93;;;3.87;;
4517;SDS011;2271;49.464;11.070;2022-11-12T02:22:42;9.67;;;4.13;;
4517;SDS011;2271;49.464;11.070;2022-11-12T02:25:10;5.10;;;4.27;;
4517;SDS011;2271;49.464;11.070;2022-11-12T02:27:38;9.00;;;4.07;;
4517;SDS011;2271;49.464;11.070;2022-11-12T02:30:04;5.87;;;3.87;;
4517;SDS011;2271;49.464;11.070;2022-11-12T02:32:31;9.37;;;4.47;;
4517;SDS011;2271;49.464;11.070;2022-11-12T02:34:56;9.93;;;4.37;;
4517;SDS011;2271;49.464;11.070;2022-11-12T02:37:22;4.43;;;3.87;;
4517;SDS011;2271;49.464;11.070;2022-11-12T02:39:47;4.10;;;3.70;;
4517;SDS011;2271;49.464;11.070;2022-11-12T02:42:13;7.07;;;3.80;;
4517;SDS011;2271;49.464;11.070;2022-11-12T02:44:38;4.40;;;3.87;;
4517;SDS011;2271;49.464;11.070;2022-11-12T02:47:04;5.50;;;3.70;;
4517;SDS011;2271;49.464;11.070;2022-11-12T02:49:30;5.47;;;4.27;;
4517;SDS011;2271;49.464;11.070;2022-11-12T02:51:55;4.70;;;3.67;;
4517;SDS011;2271;49.464;11.070;2022-11-12T02:54:21;4.07;;;3.53;;
4517;SDS011;2271;49.464;11.070;2022-11-12T02:56:47;4.77;;;3.43;;
4517;SDS011;2271;49.464;11.070;2022-11-12T02:59:12;4.07;;;3.20;;
4517;SDS011;2271;49.464;11.070;2022-11-12T03:01:38;7.40;;;3.70;;
4517;SDS011;2271;49.464;11.070;2022-11-12T03:04:03;4.07;;;3.67;;
4517;SDS011;2271;49.464;11.070;2022-11-12T03:06:29;3.87;;;3.40;;
4517;SDS011;2271;49.464;11.070;2022-11-12T03:08:54;4.10;;;3.33;;
4517;SDS011;2271;49.464;11.070;2022-11-12T03:11:20;4.53;;;3.97;;
4517;SDS011;2271;49.464;11.070;2022-11-12T03:13:46;5.90;;;3.17;;
4517;SDS011;2271;49.464;11.070;2022-11-12T03:16:11;4.03;;;2.80;;
4517;SDS011;2271;49.464;11.070;2022-11-12T03:18:37;4.53;;;3.30;;
4517;SDS011;2271;49.464;11.070;2022-11-12T03:21:03;4.97;;;3.30;;
4517;SDS011;2271;49.464;11.070;2022-11-12T03:23:29;5.17;;;3.30;;
4517;SDS011;2271;49.464;11.070;2022-11-12T03:25:55;3.87;;;3.27;;
4517;SDS011;2271;49.464;11.070;2022-11-12T03:28:21;4.33;;;3.33;;
4517;SDS011;2271;49.464;11.070;2022-11-12T03:30:46;5.83;;;3.33;;
4517;SDS011;2271;49.464;11.070;2022-11-12T03:33:12;6.33;;;3.87;;
4517;SDS011;2271;49.464;11.070;2022-11-12T03:35:39;6.33;;;3.30;;
4517;SDS011;2271;49.464;11.070;2022-11-12T03:38:05;5.83;;;3.60;;
4517;SDS011;2271;49.464;11.070;2022-11-12T03:40:31;6.43;;;3.60;;
4517;SDS011;2271;49.464;11.070;2022-11-12T03:42:58;5.27;;;3.57;;
4517;SDS011;2271;49.464;11.070;2022-11-12T03:45:24;8.87;;;4.10;;
4517;SDS011;2271;49.464;11.070;2022-11-12T03:47:52;3.43;;;2.90;;
4517;SDS011;2271;49.464;11.070;2022-11-12T03:50:20;7.23;;;4.30;;
4517;SDS011;2271;49.464;11.070;2022-11-12T03:52:47;4.73;;;3.07;;
4517;SDS011;2271;49.464;11.070;2022-11-12T03:55:15;4.20;;;3.43;;
4517;SDS011;2271;49.464;11.070;2022-11-12T03:57:42;3.40;;;3.10;;
4517;SDS011;2271;49.464;11.070;2022-11-12T04:00:09;5.93;;;3.67;;
4517;SDS011;2271;49.464;11.070;2022-11-12T04:02:35;3.30;;;3.00;;
4517;SDS011;2271;49.464;11.070;2022-11-12T04:05:02;4.03;;;3.17;;
4517;SDS011;2271;49.464;11.070;2022-11-12T04:07:56;4.10;;;3.50;;
4517;SDS011;2271;49.464;11.070;2022-11-12T04:10:41;3.37;;;3.07;;
4517;SDS011;2271;49.464;11.070;2022-11-12T04:13:06;5.07;;;3.60;;
4517;SDS011;2271;49.464;11.070;2022-11-12T04:15:50;3.70;;;2.77;;
4517;SDS011;2271;49.464;11.070;2022-11-12T04:18:36;3.93;;;3.00;;
4517;SDS011;2271;49.464;11.070;2022-11-12T04:21:21;5.17;;;3.57;;
4517;SDS011;2271;49.464;11.070;2022-11-12T04:24:08;5.13;;;3.60;;
4517;SDS011;2271;49.464;11.070;2022-11-12T04:26:54;7.03;;;4.07;;
4517;SDS011;2271;49.464;11.070;2022-11-12T04:29:19;5.00;;;3.83;;
4517;SDS011;2271;49.464;11.070;2022-11-12T04:32:04;4.60;;;4.07;;
4517;SDS011;2271;49.464;11.070;2022-11-12T04:34:29;4.67;;;3.60;;
4517;SDS011;2271;49.464;11.070;2022-11-12T04:36:55;4.63;;;3.60;;
4517;SDS011;2271;49.464;11.070;2022-11-12T04:39:21;4.80;;;3.47;;
4517;SDS011;2271;49.464;11.070;2022-11-12T04:41:46;7.20;;;3.90;;
4517;SDS011;2271;49.464;11.070;2022-11-12T04:44:30;6.60;;;4.20;;
4517;SDS011;2271;49.464;11.070;2022-11-12T04:47:14;5.30;;;4.10;;
4517;SDS011;2271;49.464;11.070;2022-11-12T04:49:40;6.23;;;3.80;;
4517;SDS011;2271;49.464;11.070;2022-11-12T04:52:05;6.60;;;4.20;;
4517;SDS011;2271;49.464;11.070;2022-11-12T04:54:31;7.77;;;3.50;;
4517;SDS011;2271;49.464;11.070;2022-11-12T04:56:57;5.50;;;3.70;;
4517;SDS011;2271;49.464;11.070;2022-11-12T04:59:23;6.57;;;4.73;;
4517;SDS011;2271;49.464;11.070;2022-11-12T05:01:49;4.57;;;4.10;;
4517;SDS011;2271;49.464;11.070;2022-11-12T05:04:15;8.40;;;4.63;;
4517;SDS011;2271;49.464;11.070;2022-11-12T05:06:40;6.03;;;4.47;;
4517;SDS011;2271;49.464;11.070;2022-11-12T05:09:19;8.77;;;4.23;;
4517;SDS011;2271;49.464;11.070;2022-11-12T05:11:46;4.10;;;3.70;;
4517;SDS011;2271;49.464;11.070;2022-11-12T05:14:12;5.77;;;3.70;;
4517;SDS011;2271;49.464;11.070;2022-11-12T05:16:38;5.10;;;3.73;;
4517;SDS011;2271;49.464;11.070;2022-11-12T05:19:04;4.97;;;3.57;;
4517;SDS011;2271;49.464;11.070;2022-11-12T05:21:30;5.27;;;4.17;;
4517;SDS011;2271;49.464;11.070;2022-11-12T05:24:14;4.30;;;3.67;;
4517;SDS011;2271;49.464;11.070;2022-11-12T05:26:39;7.57;;;3.93;;
4517;SDS011;2271;49.464;11.070;2022-11-12T05:29:05;4.10;;;3.67;;
4517;SDS011;2271;49.464;11.070;2022-11-12T05:31:31;4.73;;;3.23;;
4517;SDS011;2271;49.464;11.070;2022-11-12T05:33:57;4.73;;;3.47;;
4517;SDS011;2271;49.464;11.070;2022-11-12T05:36:23;3.37;;;3.07;;
4517;SDS011;2271;49.464;11.070;2022-11-12T05:38:48;5.20;;;3.37;;
4517;SDS011;2271;49.464;11.070;2022-11-12T05:41:14;4.80;;;3.30;;
4517;SDS011;2271;49.464;11.070;2022-11-12T05:43:40;4.70;;;2.87;;
4517;SDS011;2271;49.464;11.070;2022-11-12T05:46:05;3.17;;;2.83;;
4517;SDS011;2271;49.464;11.070;2022-11-12T05:48:31;3.63;;;3.23;;
4517;SDS011;2271;49.464;11.070;2022-11-12T05:50:57;3.63;;;3.27;;
4517;SDS011;2271;49.464;11.070;2022-11-12T05:53:22;4.03;;;3.40;;
4517;SDS011;2271;49.464;11.070;2022-11-12T05:55:48;6.23;;;3.03;;
4517;SDS011;2271;49.464;11.070;2022-11-12T05:58:13;4.40;;;3.63;;
4517;SDS011;2271;49.464;11.070;2022-11-12T06:00:39;5.17;;;3.97;;
4517;SDS011;2271;49.464;11.070;2022-11-12T06:03:05;5.73;;;3.60;;
4517;SDS011;2271;49.464;11.070;2022-11-12T06:05:32;4.67;;;3.53;;
4517;SDS011;2271;49.464;11.070;2022-11-12T06:07:58;4.97;;;3.40;;
4517;SDS011;2271;49.464;11.070;2022-11-12T06:10:23;4.37;;;3.47;;
4517;SDS011;2271;49.464;11.070;2022-11-12T06:12:50;4.87;;;3.47;;
4517;SDS011;2271;49.464;11.070;2022-11-12T06:15:16;9.00;;;4.03;;
4517;SDS011;2271;49.464;11.070;2022-11-12T06:17:42;6.13;;;3.60;;
4517;SDS011;2271;49.464;11.070;2022-11-12T06:20:08;4.07;;;3.20;;
4517;SDS011;2271;49.464;11.070;2022-11-12T06:22:34;3.47;;;3.17;;
4517;SDS011;2271;49.464;11.070;2022-11-12T06:25:00;5.70;;;3.73;;
4517;SDS011;2271;49.464;11.070;2022-11-12T06:27:25;4.97;;;3.83;;
4517;SDS011;2271;49.464;11.070;2022-11-12T06:29:51;4.07;;;3.20;;
4517;SDS011;2271;49.464;11.070;2022-11-12T06:32:16;3.80;;;3.20;;
4517;SDS011;2271;49.464;11.070;2022-11-12T06:34:42;4.70;;;3.80;;
4517;SDS011;2271;49.464;11.070;2022-11-12T06:37:08;4.07;;;3.30;;
4517;SDS011;2271;49.464;11.070;2022-11-12T06:39:33;5.17;;;3.93;;
4517;SDS011;2271;49.464;11.070;2022-11-12T06:41:59;4.47;;;3.70;;
4517;SDS011;2271;49.464;11.070;2022-11-12T06:44:26;6.20;;;3.40;;
4517;SDS011;2271;49.464;11.070;2022-11-12T06:46:51;4.90;;;3.70;;
4517;SDS011;2271;49.464;11.070;2022-11-12T06:49:17;6.00;;;4.03;;
4517;SDS011;2271;49.464;11.070;2022-11-12T06:51:43;3.90;;;3.23;;
4517;SDS011;2271;49.464;11.070;2022-11-12T06:54:09;6.13;;;3.73;;
4517;SDS011;2271;49.464;11.070;2022-11-12T06:56:35;4.13;;;3.40;;
4517;SDS011;2271;49.464;11.070;2022-11-12T06:59:00;3.80;;;3.47;;
4517;SDS011;2271;49.464;11.070;2022-11-12T07:01:26;5.77;;;3.47;;
4517;SDS011;2271;49.464;11.070;2022-11-12T07:03:52;3.50;;;3.20;;
4517;SDS011;2271;49.464;11.070;2022-11-12T07:06:18;4.20;;;3.77;;
4517;SDS011;2271;49.464;11.070;2022-11-12T07:08:45;4.60;;;3.43;;
4517;SDS011;2271;49.464;11.070;2022-11-12T07:11:11;3.40;;;3.10;;
4517;SDS011;2271;49.464;11.070;2022-11-12T07:13:37;4.60;;;3.60;;
4517;SDS011;2271;49.464;11.070;2022-11-12T07:16:04;7.03;;;4.13;;
4517;SDS011;2271;49.464;11.070;2022-11-12T07:18:35;5.83;;;4.33;;
4517;SDS011;2271;49.464;11.070;2022-11-12T07:21:06;6.40;;;4.07;;
4517;SDS011;2271;49.464;11.070;2022-11-12T07:23:34;6.90;;;4.00;;
4517;SDS011;2271;49.464;11.070;2022-11-12T07:26:02;11.83;;;4.87;;
4517;SDS011;2271;49.464;11.070;2022-11-12T07:28:32;4.47;;;3.70;;
4517;SDS011;2271;49.464;11.070;2022-11-12T07:30:59;7.10;;;4.50;;
4517;SDS011;2271;49.464;11.070;2022-11-12T07:33:26;4.57;;;3.40;;
4517;SDS011;2271;49.464;11.070;2022-11-12T07:35:56;5.77;;;4.20;;
4517;SDS011;2271;49.464;11.070;2022-11-12T07:38:23;4.67;;;4.20;;
4517;SDS011;2271;49.464;11.070;2022-11-12T07:40:49;5.90;;;3.87;;
4517;SDS011;2271;49.464;11.070;2022-11-12T07:43:14;6.30;;;3.77;;
4517;SDS011;2271;49.464;11.070;2022-11-12T07:45:40;6.33;;;3.73;;
4517;SDS011;2271;49.464;11.070;2022-11-12T07:48:05;6.57;;;4.77;;
4517;SDS011;2271;49.464;11.070;2022-11-12T07:50:31;4.70;;;3.97;;
4517;SDS011;2271;49.464;11.070;2022-11-12T07:52:57;5.40;;;4.40;;
4517;SDS011;2271;49.464;11.070;2022-11-12T07:55:23;7.27;;;4.73;;
4517;SDS011;2271;49.464;11.070;2022-11-12T07:57:49;7.27;;;5.33;;
4517;SDS011;2271;49.464;11.070;2022-11-12T08:00:14;5.10;;;4.47;;
4517;SDS011;2271;49.464;11.070;2022-11-12T08:02:40;6.50;;;4.87;;
4517;SDS011;2271;49.464;11.070;2022-11-12T08:05:06;5.63;;;4.63;;
4517;SDS011;2271;49.464;11.070;2022-11-12T08:07:31;7.17;;;4.67;;
4517;SDS011;2271;49.464;11.070;2022-11-12T08:09:57;6.07;;;5.07;;
4517;SDS011;2271;49.464;11.070;2022-11-12T08:12:23;5.40;;;4.63;;
4517;SDS011;2271;49.464;11.070;2022-11-12T08:14:48;6.40;;;4.87;;
4517;SDS011;2271;49.464;11.070;2022-11-12T08:17:14;5.03;;;4.53;;
4517;SDS011;2271;49.464;11.070;2022-11-12T08:19:39;8.73;;;4.40;;
4517;SDS011;2271;49.464;11.070;2022-11-12T08:22:05;5.87;;;4.17;;
4517;SDS011;2271;49.464;11.070;2022-11-12T08:24:31;8.20;;;5.23;;
4517;SDS011;2271;49.464;11.070;2022-11-12T08:26:56;5.80;;;4.77;;
4517;SDS011;2271;49.464;11.070;2022-11-12T08:29:22;5.70;;;3.73;;
4517;SDS011;2271;49.464;11.070;2022-11-12T08:31:47;6.93;;;3.87;;
4517;SDS011;2271;49.464;11.070;2022-11-12T08:34:13;7.17;;;4.53;;
4517;SDS011;2271;49.464;11.070;2022-11-12T08:36:39;5.07;;;4.43;;
4517;SDS011;2271;49.464;11.070;2022-11-12T08:39:05;8.57;;;5.17;;
4517;SDS011;2271;49.464;11.070;2022-11-12T08:41:31;5.67;;;4.00;;
4517;SDS011;2271;49.464;11.070;2022-11-12T08:43:57;4.83;;;3.80;;
4517;SDS011;2271;49.464;11.070;2022-11-12T08:46:23;6.03;;;4.20;;
4517;SDS011;2271;49.464;11.070;2022-11-12T08:48:49;4.73;;;4.17;;
4517;SDS011;2271;49.464;11.070;2022-11-12T08:51:14;4.80;;;4.27;;
4517;SDS011;2271;49.464;11.070;2022-11-12T08:53:40;6.13;;;4.13;;
4517;SDS011;2271;49.464;11.070;2022-11-12T08:56:05;5.13;;;4.07;;
4517;SDS011;2271;49.464;11.070;2022-11-12T08:58:31;4.60;;;3.60;;
4517;SDS011;2271;49.464;11.070;2022-11-12T09:01:02;4.77;;;4.00;;
4517;SDS011;2271;49.464;11.070;2022-11-12T09:03:29;5.83;;;4.60;;
4517;SDS011;2271;49.464;11.070;2022-11-12T09:05:54;4.67;;;4.27;;
4517;SDS011;2271;49.464;11.070;2022-11-12T09:08:21;4.33;;;3.77;;
4517;SDS011;2271;49.464;11.070;2022-11-12T09:10:48;6.10;;;3.77;;
4517;SDS011;2271;49.464;11.070;2022-11-12T09:13:14;4.87;;;3.90;;
4517;SDS011;2271;49.464;11.070;2022-11-12T09:15:42;8.10;;;5.17;;
4517;SDS011;2271;49.464;11.070;2022-11-12T09:18:10;5.70;;;4.63;;
4517;SDS011;2271;49.464;11.070;2022-11-12T09:20:37;5.57;;;4.20;;
4517;SDS011;2271;49.464;11.070;2022-11-12T09:23:08;6.07;;;3.70;;
4517;SDS011;2271;49.464;11.070;2022-11-12T09:25:35;5.73;;;4.10;;
4517;SDS011;2271;49.464;11.070;2022-11-12T09:28:05;5.10;;;4.03;;
4517;SDS011;2271;49.464;11.070;2022-11-12T09:30:32;8.10;;;3.97;;
4517;SDS011;2271;49.464;11.070;2022-11-12T09:32:58;5.10;;;4.20;;
4517;SDS011;2271;49.464;11.070;2022-11-12T09:35:23;4.67;;;3.77;;
4517;SDS011;2271;49.464;11.070;2022-11-12T09:37:49;5.53;;;4.20;;
4517;SDS011;2271;49.464;11.070;2022-11-12T09:40:15;5.20;;;4.70;;
4517;SDS011;2271;49.464;11.070;2022-11-12T09:42:46;5.90;;;4.83;;
4517;SDS011;2271;49.464;11.070;2022-11-12T09:45:24;7.83;;;4.67;;
4517;SDS011;2271;49.464;11.070;2022-11-12T09:47:55;6.37;;;3.10;;
4517;SDS011;2271;49.464;11.070;2022-11-12T09:50:27;9.17;;;3.30;;
4517;SDS011;2271;49.464;11.070;2022-11-12T09:53:04;5.17;;;4.67;;
4517;SDS011;2271;49.464;11.070;2022-11-12T09:55:41;8.07;;;5.20;;
4517;SDS011;2271;49.464;11.070;2022-11-12T09:58:13;4.83;;;4.00;;
4517;SDS011;2271;49.464;11.070;2022-11-12T10:00:41;6.17;;;5.00;;
4517;SDS011;2271;49.464;11.070;2022-11-12T10:03:37;9.97;;;5.03;;
4517;SDS011;2271;49.464;11.070;2022-11-12T10:06:17;7.37;;;4.87;;
4517;SDS011;2271;49.464;11.070;2022-11-12T10:09:32;5.60;;;3.30;;
4517;SDS011;2271;49.464;11.070;2022-11-12T10:24:14;5.50;;;4.23;;
4517;SDS011;2271;49.464;11.070;2022-11-12T10:26:40;5.53;;;4.77;;
4517;SDS011;2271;49.464;11.070;2022-11-12T10:31:41;7.97;;;5.50;;
4517;SDS011;2271;49.464;11.070;2022-11-12T10:36:49;6.63;;;5.57;;
4517;SDS011;2271;49.464;11.070;2022-11-12T10:39:37;12.63;;;5.90;;
4517;SDS011;2271;49.464;11.070;2022-11-12T10:42:09;9.50;;;5.73;;
4517;SDS011;2271;49.464;11.070;2022-11-12T10:44:37;9.80;;;6.00;;
4517;SDS011;2271;49.464;11.070;2022-11-12T10:52:59;8.37;;;5.97;;
4517;SDS011;2271;49.464;11.070;2022-11-12T10:55:27;9.27;;;5.90;;
4517;SDS011;2271;49.464;11.070;2022-11-12T10:58:04;19.07;;;10.23;;
4517;SDS011;2271;49.464;11.070;2022-11-12T11:00:33;12.07;;;7.37;;
4517;SDS011;2271;49.464;11.070;2022-11-12T11:03:01;11.63;;;7.77;;
4517;SDS011;2271;49.464;11.070;2022-11-12T11:05:57;9.37;;;7.07;;
4517;SDS011;2271;49.464;11.070;2022-11-12T11:08:37;11.73;;;6.60;;
4517;SDS011;2271;49.464;11.070;2022-11-12T11:13:57;10.40;;;7.10;;
4517;SDS011;2271;49.464;11.070;2022-11-12T11:16:54;10.73;;;5.53;;
4517;SDS011;2271;49.464;11.070;2022-11-12T11:19:26;10.47;;;7.03;;
4517;SDS011;2271;49.464;11.070;2022-11-12T11:22:01;7.57;;;6.40;;
4517;SDS011;2271;49.464;11.070;2022-11-12T11:24:33;16.57;;;12.73;;
4517;SDS011;2271;49.464;11.070;2022-11-12T11:27:09;16.13;;;12.33;;
4517;SDS011;2271;49.464;11.070;2022-11-12T11:29:59;22.97;;;9.37;;
4517;SDS011;2271;49.464;11.070;2022-11-12T11:32:51;10.07;;;6.80;;
4517;SDS011;2271;49.464;11.070;2022-11-12T11:38:19;9.80;;;6.27;;
4517;SDS011;2271;49.464;11.070;2022-11-12T11:49:22;9.97;;;7.10;;
4517;SDS011;2271;49.464;11.070;2022-11-12T11:57:28;11.07;;;6.77;;
4517;SDS011;2271;49.464;11.070;2022-11-12T12:10:47;12.30;;;7.40;;
4517;SDS011;2271;49.464;11.070;2022-11-12T12:16:25;9.95;;;6.72;;
4517;SDS011;2271;49.464;11.070;2022-11-12T12:21:51;8.55;;;6.22;;
4517;SDS011;2271;49.464;11.070;2022-11-12T12:24:19;10.32;;;6.47;;
4517;SDS011;2271;49.464;11.070;2022-11-12T12:29:41;8.50;;;6.32;;
4517;SDS011;2271;49.464;11.070;2022-11-12T12:32:14;9.95;;;7.10;;
4517;SDS011;2271;49.464;11.070;2022-11-12T12:34:47;11.20;;;6.65;;
4517;SDS011;2271;49.464;11.070;2022-11-12T12:37:33;9.93;;;6.55;;
4517;SDS011;2271;49.464;11.070;2022-11-12T12:42:57;11.10;;;6.90;;
4517;SDS011;2271;49.464;11.070;2022-11-12T12:50:52;12.23;;;7.60;;
4517;SDS011;2271;49.464;11.070;2022-11-12T12:55:47;13.02;;;5.93;;
4517;SDS011;2271;49.464;11.070;2022-11-12T13:00:45;9.73;;;6.23;;
4517;SDS011;2271;49.464;11.070;2022-11-12T13:06:13;10.65;;;7.00;;
4517;SDS011;2271;49.464;11.070;2022-11-12T13:19:35;11.07;;;7.18;;
4517;SDS011;2271;49.464;11.070;2022-11-12T13:25:23;12.05;;;6.93;;
4517;SDS011;2271;49.464;11.070;2022-11-12T13:37:45;15.23;;;8.00;;
4517;SDS011;2271;49.464;11.070;2022-11-12T13:40:37;13.20;;;6.82;;
4517;SDS011;2271;49.464;11.070;2022-11-12T13:46:11;11.70;;;8.05;;
4517;SDS011;2271;49.464;11.070;2022-11-12T13:53:56;11.15;;;7.00;;
4517;SDS011;2271;49.464;11.070;2022-11-12T13:56:26;12.70;;;7.70;;
4517;SDS011;2271;49.464;11.070;2022-11-12T13:58:52;9.52;;;7.38;;
4517;SDS011;2271;49.464;11.070;2022-11-12T14:01:18;15.43;;;7.82;;
4517;SDS011;2271;49.464;11.070;2022-11-12T14:03:47;10.27;;;7.43;;
4517;SDS011;2271;49.464;11.070;2022-11-12T14:06:27;10.13;;;7.70;;
4517;SDS011;2271;49.464;11.070;2022-11-12T14:11:49;10.98;;;7.40;;
4517;SDS011;2271;49.464;11.070;2022-11-12T14:22:41;13.07;;;8.00;;
4517;SDS011;2271;49.464;11.070;2022-11-12T14:25:16;11.45;;;8.25;;
4517;SDS011;2271;49.464;11.070;2022-11-12T14:27:42;11.73;;;7.78;;
4517;SDS011;2271;49.464;11.070;2022-11-12T14:32:41;13.85;;;8.00;;
4517;SDS011;2271;49.464;11.070;2022-11-12T14:37:56;12.43;;;8.10;;
4517;SDS011;2271;49.464;11.070;2022-11-12T14:40:25;11.85;;;8.15;;
4517;SDS011;2271;49.464;11.070;2022-11-12T14:42:53;10.82;;;7.93;;
4517;SDS011;2271;49.464;11.070;2022-11-12T14:45:19;14.75;;;7.70;;
4517;SDS011;2271;49.464;11.070;2022-11-12T14:47:47;11.52;;;7.43;;
4517;SDS011;2271;49.464;11.070;2022-11-12T14:50:15;10.35;;;8.15;;
4517;SDS011;2271;49.464;11.070;2022-11-12T14:52:48;10.63;;;7.38;;
4517;SDS011;2271;49.464;11.070;2022-11-12T14:55:18;14.80;;;8.20;;
4517;SDS011;2271;49.464;11.070;2022-11-12T14:57:47;15.90;;;8.60;;
4517;SDS011;2271;49.464;11.070;2022-11-12T15:00:55;12.20;;;7.70;;
4517;SDS011;2271;49.464;11.070;2022-11-12T15:03:04;13.77;;;7.23;;
4517;SDS011;2271;49.464;11.070;2022-11-12T15:05:30;11.87;;;7.43;;
4517;SDS011;2271;49.464;11.070;2022-11-12T15:07:57;10.83;;;7.87;;
4517;SDS011;2271;49.464;11.070;2022-11-12T15:10:33;11.35;;;8.35;;
4517;SDS011;2271;49.464;11.070;2022-11-12T15:13:07;10.73;;;8.10;;
4517;SDS011;2271;49.464;11.070;2022-11-12T15:15:36;13.70;;;8.95;;
4517;SDS011;2271;49.464;11.070;2022-11-12T15:18:14;10.83;;;7.13;;
4517;SDS011;2271;49.464;11.070;2022-11-12T15:20:59;10.97;;;7.23;;
4517;SDS011;2271;49.464;11.070;2022-11-12T15:23:29;16.07;;;7.00;;
4517;SDS011;2271;49.464;11.070;2022-11-12T15:25:58;11.45;;;7.43;;
4517;SDS011;2271;49.464;11.070;2022-11-12T15:28:25;9.95;;;7.20;;
4517;SDS011;2271;49.464;11.070;2022-11-12T15:33:43;11.00;;;7.50;;
4517;SDS011;2271;49.464;11.070;2022-11-12T15:36:19;10.47;;;7.30;;
4517;SDS011;2271;49.464;11.070;2022-11-12T15:38:47;17.37;;;7.70;;
4517;SDS011;2271;49.464;11.070;2022-11-12T15:41:25;10.05;;;7.00;;
4517;SDS011;2271;49.464;11.070;2022-11-12T15:43:53;9.77;;;6.77;;
4517;SDS011;2271;49.464;11.070;2022-11-12T15:46:19;7.85;;;7.03;;
4517;SDS011;2271;49.464;11.070;2022-11-12T15:48:45;14.73;;;7.07;;
4517;SDS011;2271;49.464;11.070;2022-11-12T15:51:10;11.53;;;7.20;;
4517;SDS011;2271;49.464;11.070;2022-11-12T15:53:36;10.10;;;7.67;;
4517;SDS011;2271;49.464;11.070;2022-11-12T15:56:02;13.00;;;8.47;;
4517;SDS011;2271;49.464;11.070;2022-11-12T15:58:29;13.10;;;9.33;;
4517;SDS011;2271;49.464;11.070;2022-11-12T16:00:58;12.25;;;8.38;;
4517;SDS011;2271;49.464;11.070;2022-11-12T16:03:23;13.43;;;8.47;;
4517;SDS011;2271;49.464;11.070;2022-11-12T16:05:51;12.53;;;8.77;;
4517;SDS011;2271;49.464;11.070;2022-11-12T16:08:18;13.20;;;8.50;;
4517;SDS011;2271;49.464;11.070;2022-11-12T16:10:44;11.67;;;8.40;;
4517;SDS011;2271;49.464;11.070;2022-11-12T16:13:27;11.33;;;7.87;;
4517;SDS011;2271;49.464;11.070;2022-11-12T16:16:00;12.70;;;8.93;;
4517;SDS011;2271;49.464;11.070;2022-11-12T16:18:30;13.83;;;8.50;;
4517;SDS011;2271;49.464;11.070;2022-11-12T16:20:56;18.13;;;8.77;;
4517;SDS011;2271;49.464;11.070;2022-11-12T16:23:21;15.13;;;8.93;;
4517;SDS011;2271;49.464;11.070;2022-11-12T16:25:47;12.53;;;9.93;;
4517;SDS011;2271;49.464;11.070;2022-11-12T16:28:13;11.53;;;8.57;;
4517;SDS011;2271;49.464;11.070;2022-11-12T16:30:41;12.33;;;8.17;;
4517;SDS011;2271;49.464;11.070;2022-11-12T16:33:08;14.13;;;8.90;;
4517;SDS011;2271;49.464;11.070;2022-11-12T16:35:35;12.53;;;9.07;;
4517;SDS011;2271;49.464;11.070;2022-11-12T16:38:00;23.37;;;9.03;;
4517;SDS011;2271;49.464;11.070;2022-11-12T16:40:27;9.63;;;7.57;;
4517;SDS011;2271;49.464;11.070;2022-11-12T16:42:54;15.10;;;8.27;;
4517;SDS011;2271;49.464;11.070;2022-11-12T16:45:21;9.93;;;7.47;;
4517;SDS011;2271;49.464;11.070;2022-11-12T16:47:49;9.17;;;7.10;;
4517;SDS011;2271;49.464;11.070;2022-11-12T16:50:18;9.73;;;6.70;;
4517;SDS011;2271;49.464;11.070;2022-11-12T16:52:46;13.00;;;7.60;;
4517;SDS011;2271;49.464;11.070;2022-11-12T16:55:12;12.97;;;7.93;;
4517;SDS011;2271;49.464;11.070;2022-11-12T16:57:38;11.67;;;7.97;;
4517;SDS011;2271;49.464;11.070;2022-11-12T17:00:04;13.87;;;8.17;;
4517;SDS011;2271;49.464;11.070;2022-11-12T17:02:31;14.57;;;8.20;;
4517;SDS011;2271;49.464;11.070;2022-11-12T17:05:00;9.80;;;8.53;;
4517;SDS011;2271;49.464;11.070;2022-11-12T17:07:30;10.97;;;8.87;;
4517;SDS011;2271;49.464;11.070;2022-11-12T17:09:56;12.20;;;8.63;;
4517;SDS011;2271;49.464;11.070;2022-11-12T17:12:21;9.97;;;7.97;;
4517;SDS011;2271;49.464;11.070;2022-11-12T17:14:47;9.83;;;7.90;;
4517;SDS011;2271;49.464;11.070;2022-11-12T17:17:12;12.43;;;8.63;;
4517;SDS011;2271;49.464;11.070;2022-11-12T17:19:38;18.30;;;10.00;;
4517;SDS011;2271;49.464;11.070;2022-11-12T17:22:04;10.07;;;8.53;;